sensor_id;sensor_type;location;lat;lon;timestamp;pressure;altitude;pressure_sealevel;temperature;humidity
73566;BME280;61846;52.970;-3.168;2022-12-16T00:01:07;100741.65;;;-0.93;40.16
73566;BME280;61846;52.970;-3.168;2022-12-16T00:03:31;100743.50;;;-0.68;41.08
73566;BME280;61846;52.970;-3.168;2022-12-16T00:05:56;100748.43;;;-3.22;45.30
73566;BME280;61846;52.970;-3.168;2022-12-16T00:08:21;100736.61;;;-0.75;41.36
73566;BME280;61846;52.970;-3.168;2022-12-16T00:10:46;100734.55;;;-1.05;41.75
73566;BME280;61846;52.970;-3.168;2022-12-16T00:13:12;100734.22;;;-1.22;42.47
73566;BME280;61846;52.970;-3.168;2022-12-16T00:15:37;100734.21;;;-0.53;40.90
73566;BME280;61846;52.970;-3.168;2022-12-16T00:18:03;100735.47;;;-0.99;40.63
73566;BME280;61846;52.970;-3.168;2022-12-16T00:20:28;100740.00;;;-2.56;43.35
73566;BME280;61846;52.970;-3.168;2022-12-16T00:22:54;100739.81;;;-2.40;43.84
73566;BME280;61846;52.970;-3.168;2022-12-16T00:25:19;100741.64;;;-1.59;42.39
73566;BME280;61846;52.970;-3.168;2022-12-16T00:27:45;100741.33;;;-1.51;42.72
73566;BME280;61846;52.970;-3.168;2022-12-16T00:30:12;100740.93;;;-0.61;41.07
73566;BME280;61846;52.970;-3.168;2022-12-16T00:32:36;100740.20;;;-0.55;40.91
73566;BME280;61846;52.970;-3.168;2022-12-16T00:35:02;100739.68;;;-1.08;41.21
73566;BME280;61846;52.970;-3.168;2022-12-16T00:37:28;100741.04;;;-0.94;40.52
73566;BME280;61846;52.970;-3.168;2022-12-16T00:39:54;100740.34;;;-0.08;38.95
73566;BME280;61846;52.970;-3.168;2022-12-16T00:42:18;100744.16;;;-0.11;39.67
73566;BME280;61846;52.970;-3.168;2022-12-16T00:44:44;100745.00;;;-0.72;40.42
73566;BME280;61846;52.970;-3.168;2022-12-16T00:47:09;100750.11;;;-0.94;41.03
73566;BME280;61846;52.970;-3.168;2022-12-16T00:49:35;100752.83;;;-1.59;42.20
73566;BME280;61846;52.970;-3.168;2022-12-16T00:52:01;100750.80;;;-1.97;41.82
73566;BME280;61846;52.970;-3.168;2022-12-16T00:54:26;100754.64;;;-1.88;42.65
73566;BME280;61846;52.970;-3.168;2022-12-16T00:56:52;100754.11;;;-0.99;41.43
73566;BME280;61846;52.970;-3.168;2022-12-16T00:59:18;100750.24;;;-0.79;41.23
73566;BME280;61846;52.970;-3.168;2022-12-16T01:01:43;100750.37;;;-1.28;41.42
73566;BME280;61846;52.970;-3.168;2022-12-16T01:04:09;100754.99;;;-2.32;43.21
73566;BME280;61846;52.970;-3.168;2022-12-16T01:06:35;100752.45;;;-0.85;40.80
73566;BME280;61846;52.970;-3.168;2022-12-16T01:09:00;100751.55;;;-1.55;40.96
73566;BME280;61846;52.970;-3.168;2022-12-16T01:11:25;100753.14;;;-1.47;41.50
73566;BME280;61846;52.970;-3.168;2022-12-16T01:13:51;100753.73;;;-1.88;42.14
73566;BME280;61846;52.970;-3.168;2022-12-16T01:16:16;100758.22;;;-2.37;42.71
73566;BME280;61846;52.970;-3.168;2022-12-16T01:18:41;100759.59;;;-3.23;43.84
73566;BME280;61846;52.970;-3.168;2022-12-16T01:21:08;100756.23;;;-2.73;43.38
73566;BME280;61846;52.970;-3.168;2022-12-16T01:23:32;100756.60;;;-1.54;41.29
73566;BME280;61846;52.970;-3.168;2022-12-16T01:25:59;100759.68;;;-2.55;42.68
73566;BME280;61846;52.970;-3.168;2022-12-16T01:28:23;100762.95;;;-1.50;41.31
73566;BME280;61846;52.970;-3.168;2022-12-16T01:30:48;100762.36;;;-1.69;41.44
73566;BME280;61846;52.970;-3.168;2022-12-16T01:33:13;100768.83;;;-2.08;42.91
73566;BME280;61846;52.970;-3.168;2022-12-16T01:35:38;100766.59;;;-1.77;42.42
73566;BME280;61846;52.970;-3.168;2022-12-16T01:38:04;100772.65;;;-2.03;42.49
73566;BME280;61846;52.970;-3.168;2022-12-16T01:40:29;100772.89;;;-1.88;42.04
73566;BME280;61846;52.970;-3.168;2022-12-16T01:42:55;100770.21;;;-1.25;41.23
73566;BME280;61846;52.970;-3.168;2022-12-16T01:45:29;100778.16;;;-2.24;42.21
73566;BME280;61846;52.970;-3.168;2022-12-16T01:47:46;100773.14;;;-1.64;41.13
73566;BME280;61846;52.970;-3.168;2022-12-16T01:50:14;100776.09;;;-2.12;42.02
73566;BME280;61846;52.970;-3.168;2022-12-16T01:52:40;100778.10;;;-2.03;41.45
73566;BME280;61846;52.970;-3.168;2022-12-16T01:55:06;100774.09;;;-1.68;40.79
73566;BME280;61846;52.970;-3.168;2022-12-16T01:57:34;100775.44;;;-1.73;41.36
73566;BME280;61846;52.970;-3.168;2022-12-16T01:59:54;100772.35;;;-1.54;41.32
73566;BME280;61846;52.970;-3.168;2022-12-16T02:02:19;100776.70;;;-2.14;42.19
73566;BME280;61846;52.970;-3.168;2022-12-16T02:04:45;100778.83;;;-1.92;40.85
73566;BME280;61846;52.970;-3.168;2022-12-16T02:07:10;100783.70;;;-2.33;41.83
73566;BME280;61846;52.970;-3.168;2022-12-16T02:09:35;100781.19;;;-1.84;40.83
73566;BME280;61846;52.970;-3.168;2022-12-16T02:12:14;100784.65;;;-2.11;41.10
73566;BME280;61846;52.970;-3.168;2022-12-16T02:14:40;100782.97;;;-1.05;39.95
73566;BME280;61846;52.970;-3.168;2022-12-16T02:16:55;100783.07;;;-0.65;38.31
73566;BME280;61846;52.970;-3.168;2022-12-16T02:21:46;100789.51;;;-1.26;39.66
73566;BME280;61846;52.970;-3.168;2022-12-16T02:24:19;100788.49;;;-1.38;38.87
73566;BME280;61846;52.970;-3.168;2022-12-16T02:26:48;100786.11;;;-0.46;37.92
73566;BME280;61846;52.970;-3.168;2022-12-16T02:31:26;100788.80;;;-1.90;40.41
73566;BME280;61846;52.970;-3.168;2022-12-16T02:33:58;100789.51;;;-1.93;40.78
73566;BME280;61846;52.970;-3.168;2022-12-16T02:36:23;100783.51;;;-1.28;39.34
73566;BME280;61846;52.970;-3.168;2022-12-16T02:38:47;100781.30;;;-1.29;39.60
73566;BME280;61846;52.970;-3.168;2022-12-16T02:41:11;100787.62;;;-2.32;40.89
73566;BME280;61846;52.970;-3.168;2022-12-16T02:43:42;100790.46;;;-3.18;42.33
73566;BME280;61846;52.970;-3.168;2022-12-16T02:45:57;100788.23;;;-1.85;40.17
73566;BME280;61846;52.970;-3.168;2022-12-16T02:48:22;100789.55;;;-1.26;40.15
73566;BME280;61846;52.970;-3.168;2022-12-16T02:50:48;100789.66;;;-2.32;41.22
73566;BME280;61846;52.970;-3.168;2022-12-16T02:53:13;100791.31;;;-2.65;42.56
73566;BME280;61846;52.970;-3.168;2022-12-16T02:55:46;100789.35;;;-2.37;41.62
73566;BME280;61846;52.970;-3.168;2022-12-16T02:58:11;100791.04;;;-3.44;43.41
73566;BME280;61846;52.970;-3.168;2022-12-16T03:00:35;100786.77;;;-3.43;43.84
73566;BME280;61846;52.970;-3.168;2022-12-16T03:02:59;100785.84;;;-4.35;45.59
73566;BME280;61846;52.970;-3.168;2022-12-16T03:05:22;100786.16;;;-3.06;44.57
73566;BME280;61846;52.970;-3.168;2022-12-16T03:07:47;100789.46;;;-3.34;44.08
73566;BME280;61846;52.970;-3.168;2022-12-16T03:10:15;100792.26;;;-3.43;43.90
73566;BME280;61846;52.970;-3.168;2022-12-16T03:12:39;100789.47;;;-2.31;41.68
73566;BME280;61846;52.970;-3.168;2022-12-16T03:15:04;100791.71;;;-2.50;41.50
73566;BME280;61846;52.970;-3.168;2022-12-16T03:17:28;100791.53;;;-2.42;41.69
73566;BME280;61846;52.970;-3.168;2022-12-16T03:19:57;100787.12;;;-2.78;42.24
73566;BME280;61846;52.970;-3.168;2022-12-16T03:22:20;100786.43;;;-2.39;41.48
73566;BME280;61846;52.970;-3.168;2022-12-16T03:24:44;100791.25;;;-3.36;43.55
73566;BME280;61846;52.970;-3.168;2022-12-16T03:27:12;100796.06;;;-4.85;44.99
73566;BME280;61846;52.970;-3.168;2022-12-16T03:29:39;100796.56;;;-3.52;44.70
73566;BME280;61846;52.970;-3.168;2022-12-16T03:32:02;100797.03;;;-3.79;44.28
73566;BME280;61846;52.970;-3.168;2022-12-16T03:34:31;100799.43;;;-4.41;45.14
73566;BME280;61846;52.970;-3.168;2022-12-16T03:36:54;100799.80;;;-3.67;44.67
73566;BME280;61846;52.970;-3.168;2022-12-16T03:39:17;100801.23;;;-4.84;46.63
73566;BME280;61846;52.970;-3.168;2022-12-16T03:41:42;100796.10;;;-3.91;45.41
73566;BME280;61846;52.970;-3.168;2022-12-16T03:44:07;100795.29;;;-4.36;45.42
73566;BME280;61846;52.970;-3.168;2022-12-16T03:46:32;100797.96;;;-3.47;44.94
73566;BME280;61846;52.970;-3.168;2022-12-16T03:48:58;100796.28;;;-3.83;44.20
73566;BME280;61846;52.970;-3.168;2022-12-16T03:51:23;100794.61;;;-3.87;43.97
73566;BME280;61846;52.970;-3.168;2022-12-16T03:53:49;100794.51;;;-3.67;43.77
73566;BME280;61846;52.970;-3.168;2022-12-16T03:56:15;100790.44;;;-3.44;44.16
73566;BME280;61846;52.970;-3.168;2022-12-16T03:58:40;100789.60;;;-3.93;45.48
73566;BME280;61846;52.970;-3.168;2022-12-16T04:01:06;100788.16;;;-3.00;43.23
73566;BME280;61846;52.970;-3.168;2022-12-16T04:03:31;100793.04;;;-2.97;43.54
73566;BME280;61846;52.970;-3.168;2022-12-16T04:05:57;100791.79;;;-2.84;42.54
73566;BME280;61846;52.970;-3.168;2022-12-16T04:08:22;100788.17;;;-2.17;42.16
73566;BME280;61846;52.970;-3.168;2022-12-16T04:10:50;100790.00;;;-3.28;43.72
73566;BME280;61846;52.970;-3.168;2022-12-16T04:13:13;100790.38;;;-3.85;44.23
73566;BME280;61846;52.970;-3.168;2022-12-16T04:15:38;100787.19;;;-3.05;43.72
73566;BME280;61846;52.970;-3.168;2022-12-16T04:18:05;100787.69;;;-3.42;43.90
73566;BME280;61846;52.970;-3.168;2022-12-16T04:20:31;100787.63;;;-2.51;41.67
73566;BME280;61846;52.970;-3.168;2022-12-16T04:22:55;100789.55;;;-2.54;41.78
73566;BME280;61846;52.970;-3.168;2022-12-16T04:25:24;100794.38;;;-3.24;42.17
73566;BME280;61846;52.970;-3.168;2022-12-16T04:27:46;100794.97;;;-3.33;42.81
73566;BME280;61846;52.970;-3.168;2022-12-16T04:30:13;100790.04;;;-4.05;44.20
73566;BME280;61846;52.970;-3.168;2022-12-16T04:32:37;100792.89;;;-3.36;43.44
73566;BME280;61846;52.970;-3.168;2022-12-16T04:35:02;100794.75;;;-3.89;43.07
73566;BME280;61846;52.970;-3.168;2022-12-16T04:37:27;100786.38;;;-2.06;40.99
73566;BME280;61846;52.970;-3.168;2022-12-16T04:39:53;100785.05;;;-3.54;42.28
73566;BME280;61846;52.970;-3.168;2022-12-16T04:42:18;100783.87;;;-3.48;42.74
73566;BME280;61846;52.970;-3.168;2022-12-16T04:44:44;100780.87;;;-3.24;43.03
73566;BME280;61846;52.970;-3.168;2022-12-16T04:47:09;100779.95;;;-3.46;43.07
73566;BME280;61846;52.970;-3.168;2022-12-16T04:49:35;100782.79;;;-2.82;41.92
73566;BME280;61846;52.970;-3.168;2022-12-16T04:52:01;100786.88;;;-2.93;41.79
73566;BME280;61846;52.970;-3.168;2022-12-16T04:54:26;100789.72;;;-2.86;42.67
73566;BME280;61846;52.970;-3.168;2022-12-16T04:56:52;100786.92;;;-3.54;43.58
73566;BME280;61846;52.970;-3.168;2022-12-16T04:59:17;100788.58;;;-4.25;45.55
73566;BME280;61846;52.970;-3.168;2022-12-16T05:01:43;100787.03;;;-3.89;44.71
73566;BME280;61846;52.970;-3.168;2022-12-16T05:04:09;100793.05;;;-4.24;44.91
73566;BME280;61846;52.970;-3.168;2022-12-16T05:06:34;100791.47;;;-3.80;45.05
73566;BME280;61846;52.970;-3.168;2022-12-16T05:09:00;100791.27;;;-4.50;45.26
73566;BME280;61846;52.970;-3.168;2022-12-16T05:11:25;100795.45;;;-4.80;46.15
73566;BME280;61846;52.970;-3.168;2022-12-16T05:13:50;100791.96;;;-3.52;44.56
73566;BME280;61846;52.970;-3.168;2022-12-16T05:16:16;100792.84;;;-3.24;43.37
73566;BME280;61846;52.970;-3.168;2022-12-16T05:18:41;100791.66;;;-3.83;44.05
73566;BME280;61846;52.970;-3.168;2022-12-16T05:21:06;100790.38;;;-4.15;44.45
73566;BME280;61846;52.970;-3.168;2022-12-16T05:23:32;100797.41;;;-4.84;45.97
73566;BME280;61846;52.970;-3.168;2022-12-16T05:25:58;100797.39;;;-4.26;44.47
73566;BME280;61846;52.970;-3.168;2022-12-16T05:28:23;100793.85;;;-3.51;43.78
73566;BME280;61846;52.970;-3.168;2022-12-16T05:30:48;100790.79;;;-4.19;45.05
73566;BME280;61846;52.970;-3.168;2022-12-16T05:33:14;100790.25;;;-3.60;43.25
73566;BME280;61846;52.970;-3.168;2022-12-16T05:35:40;100790.89;;;-2.85;42.90
73566;BME280;61846;52.970;-3.168;2022-12-16T05:38:05;100789.58;;;-3.23;42.56
73566;BME280;61846;52.970;-3.168;2022-12-16T05:40:30;100787.27;;;-3.16;42.54
73566;BME280;61846;52.970;-3.168;2022-12-16T05:42:56;100782.68;;;-3.60;43.52
73566;BME280;61846;52.970;-3.168;2022-12-16T05:45:22;100780.33;;;-3.56;43.87
73566;BME280;61846;52.970;-3.168;2022-12-16T05:47:47;100780.18;;;-3.53;44.64
73566;BME280;61846;52.970;-3.168;2022-12-16T05:50:12;100781.28;;;-3.53;43.59
73566;BME280;61846;52.970;-3.168;2022-12-16T05:52:38;100782.62;;;-3.53;43.91
73566;BME280;61846;52.970;-3.168;2022-12-16T05:55:04;100782.78;;;-3.20;43.14
73566;BME280;61846;52.970;-3.168;2022-12-16T05:57:29;100780.82;;;-3.20;42.45
73566;BME280;61846;52.970;-3.168;2022-12-16T05:59:55;100779.48;;;-3.22;42.70
73566;BME280;61846;52.970;-3.168;2022-12-16T06:02:20;100775.86;;;-2.83;42.13
73566;BME280;61846;52.970;-3.168;2022-12-16T06:04:45;100776.59;;;-4.14;44.36
73566;BME280;61846;52.970;-3.168;2022-12-16T06:07:10;100778.64;;;-2.65;42.30
73566;BME280;61846;52.970;-3.168;2022-12-16T06:09:36;100779.15;;;-1.88;40.09
73566;BME280;61846;52.970;-3.168;2022-12-16T06:12:02;100781.82;;;-3.02;40.54
73566;BME280;61846;52.970;-3.168;2022-12-16T06:14:27;100780.86;;;-3.79;43.18
73566;BME280;61846;52.970;-3.168;2022-12-16T06:16:53;100783.32;;;-3.22;41.97
73566;BME280;61846;52.970;-3.168;2022-12-16T06:19:18;100778.65;;;-3.25;42.39
73566;BME280;61846;52.970;-3.168;2022-12-16T06:21:44;100777.24;;;-2.62;41.25
73566;BME280;61846;52.970;-3.168;2022-12-16T06:24:10;100777.28;;;-2.72;41.25
73566;BME280;61846;52.970;-3.168;2022-12-16T06:26:35;100775.63;;;-2.87;41.75
73566;BME280;61846;52.970;-3.168;2022-12-16T06:29:00;100776.25;;;-2.24;39.71
73566;BME280;61846;52.970;-3.168;2022-12-16T06:31:26;100770.83;;;-1.67;39.58
73566;BME280;61846;52.970;-3.168;2022-12-16T06:33:51;100774.66;;;-2.42;40.81
73566;BME280;61846;52.970;-3.168;2022-12-16T06:36:17;100773.49;;;-3.43;42.72
73566;BME280;61846;52.970;-3.168;2022-12-16T06:38:42;100771.88;;;-2.74;41.66
73566;BME280;61846;52.970;-3.168;2022-12-16T06:41:08;100773.48;;;-3.46;43.01
73566;BME280;61846;52.970;-3.168;2022-12-16T06:43:33;100773.49;;;-4.09;44.23
73566;BME280;61846;52.970;-3.168;2022-12-16T06:45:59;100773.79;;;-2.68;40.77
73566;BME280;61846;52.970;-3.168;2022-12-16T06:48:24;100771.13;;;-2.67;41.06
73566;BME280;61846;52.970;-3.168;2022-12-16T06:50:50;100776.33;;;-3.29;42.25
73566;BME280;61846;52.970;-3.168;2022-12-16T06:53:16;100777.02;;;-3.24;41.98
73566;BME280;61846;52.970;-3.168;2022-12-16T06:55:41;100772.64;;;-3.70;42.92
73566;BME280;61846;52.970;-3.168;2022-12-16T06:58:07;100776.11;;;-4.87;44.54
73566;BME280;61846;52.970;-3.168;2022-12-16T07:00:32;100780.68;;;-4.92;45.43
73566;BME280;61846;52.970;-3.168;2022-12-16T07:02:58;100777.79;;;-3.28;42.32
73566;BME280;61846;52.970;-3.168;2022-12-16T07:05:23;100773.66;;;-3.62;43.06
73566;BME280;61846;52.970;-3.168;2022-12-16T07:07:49;100774.92;;;-3.70;44.47
73566;BME280;61846;52.970;-3.168;2022-12-16T07:10:14;100778.07;;;-3.45;43.39
73566;BME280;61846;52.970;-3.168;2022-12-16T07:12:39;100782.53;;;-2.85;42.26
73566;BME280;61846;52.970;-3.168;2022-12-16T07:15:05;100788.65;;;-3.43;42.75
73566;BME280;61846;52.970;-3.168;2022-12-16T07:17:30;100787.66;;;-3.17;42.56
73566;BME280;61846;52.970;-3.168;2022-12-16T07:19:56;100789.37;;;-2.18;40.61
73566;BME280;61846;52.970;-3.168;2022-12-16T07:22:21;100789.89;;;-2.08;40.36
73566;BME280;61846;52.970;-3.168;2022-12-16T07:24:46;100796.05;;;-3.12;42.17
73566;BME280;61846;52.970;-3.168;2022-12-16T07:27:12;100796.82;;;-3.69;43.15
73566;BME280;61846;52.970;-3.168;2022-12-16T07:29:37;100797.15;;;-3.70;44.08
73566;BME280;61846;52.970;-3.168;2022-12-16T07:32:03;100800.20;;;-3.77;43.87
73566;BME280;61846;52.970;-3.168;2022-12-16T07:34:28;100798.88;;;-3.63;43.59
73566;BME280;61846;52.970;-3.168;2022-12-16T07:36:54;100798.34;;;-3.25;42.96
73566;BME280;61846;52.970;-3.168;2022-12-16T07:39:19;100799.44;;;-3.21;42.77
73566;BME280;61846;52.970;-3.168;2022-12-16T07:41:44;100800.91;;;-4.06;44.35
73566;BME280;61846;52.970;-3.168;2022-12-16T07:44:10;100800.77;;;-4.31;45.27
73566;BME280;61846;52.970;-3.168;2022-12-16T07:46:35;100802.74;;;-3.19;43.00
73566;BME280;61846;52.970;-3.168;2022-12-16T07:49:00;100806.50;;;-2.99;42.39
73566;BME280;61846;52.970;-3.168;2022-12-16T07:51:26;100811.44;;;-3.84;44.08
73566;BME280;61846;52.970;-3.168;2022-12-16T07:53:52;100809.94;;;-2.58;42.22
73566;BME280;61846;52.970;-3.168;2022-12-16T07:56:17;100813.50;;;-3.02;43.05
73566;BME280;61846;52.970;-3.168;2022-12-16T07:58:42;100812.74;;;-2.36;42.12
73566;BME280;61846;52.970;-3.168;2022-12-16T08:01:07;100815.19;;;-2.64;42.46
73566;BME280;61846;52.970;-3.168;2022-12-16T08:03:33;100819.76;;;-2.09;41.32
73566;BME280;61846;52.970;-3.168;2022-12-16T08:05:59;100822.12;;;-3.51;42.51
73566;BME280;61846;52.970;-3.168;2022-12-16T08:08:24;100822.93;;;-3.19;43.09
73566;BME280;61846;52.970;-3.168;2022-12-16T08:10:49;100824.25;;;-3.88;44.75
73566;BME280;61846;52.970;-3.168;2022-12-16T08:13:14;100829.61;;;-4.45;45.85
73566;BME280;61846;52.970;-3.168;2022-12-16T08:15:40;100830.48;;;-3.57;44.46
73566;BME280;61846;52.970;-3.168;2022-12-16T08:18:05;100833.30;;;-4.47;46.08
73566;BME280;61846;52.970;-3.168;2022-12-16T08:20:30;100834.57;;;-3.76;46.12
73566;BME280;61846;52.970;-3.168;2022-12-16T08:22:57;100841.80;;;-5.23;47.16
73566;BME280;61846;52.970;-3.168;2022-12-16T08:25:22;100843.54;;;-4.57;46.91
73566;BME280;61846;52.970;-3.168;2022-12-16T08:27:53;100844.73;;;-3.38;44.62
73566;BME280;61846;52.970;-3.168;2022-12-16T08:30:14;100847.04;;;-3.43;44.44
73566;BME280;61846;52.970;-3.168;2022-12-16T08:32:39;100843.03;;;-4.02;45.52
73566;BME280;61846;52.970;-3.168;2022-12-16T08:35:05;100845.63;;;-3.29;43.98
73566;BME280;61846;52.970;-3.168;2022-12-16T08:37:31;100846.53;;;-3.56;44.34
73566;BME280;61846;52.970;-3.168;2022-12-16T08:39:57;100855.04;;;-3.93;46.18
73566;BME280;61846;52.970;-3.168;2022-12-16T08:42:22;100858.96;;;-3.75;45.85
73566;BME280;61846;52.970;-3.168;2022-12-16T08:44:47;100858.05;;;-3.22;44.24
73566;BME280;61846;52.970;-3.168;2022-12-16T08:47:12;100859.47;;;-2.34;43.01
73566;BME280;61846;52.970;-3.168;2022-12-16T08:49:38;100864.14;;;-3.15;43.77
73566;BME280;61846;52.970;-3.168;2022-12-16T08:52:03;100864.04;;;-2.62;43.11
73566;BME280;61846;52.970;-3.168;2022-12-16T08:54:29;100864.28;;;-2.17;42.28
73566;BME280;61846;52.970;-3.168;2022-12-16T08:56:54;100860.92;;;-2.62;43.01
73566;BME280;61846;52.970;-3.168;2022-12-16T08:59:20;100860.71;;;-1.42;41.08
73566;BME280;61846;52.970;-3.168;2022-12-16T09:01:45;100858.85;;;-1.61;40.89
73566;BME280;61846;52.970;-3.168;2022-12-16T09:04:11;100858.34;;;-1.02;40.31
73566;BME280;61846;52.970;-3.168;2022-12-16T09:06:37;100862.38;;;-2.45;42.26
73566;BME280;61846;52.970;-3.168;2022-12-16T09:09:03;100860.93;;;-2.84;41.79
73566;BME280;61846;52.970;-3.168;2022-12-16T09:11:28;100860.69;;;-2.16;42.12
73566;BME280;61846;52.970;-3.168;2022-12-16T09:13:55;100860.73;;;-3.18;44.56
73566;BME280;61846;52.970;-3.168;2022-12-16T09:16:19;100859.88;;;-2.42;43.33
73566;BME280;61846;52.970;-3.168;2022-12-16T09:18:45;100863.45;;;-2.75;43.33
73566;BME280;61846;52.970;-3.168;2022-12-16T09:21:10;100863.93;;;-2.24;42.89
73566;BME280;61846;52.970;-3.168;2022-12-16T09:23:36;100864.51;;;-1.92;42.37
73566;BME280;61846;52.970;-3.168;2022-12-16T09:26:01;100867.66;;;-2.86;43.21
73566;BME280;61846;52.970;-3.168;2022-12-16T09:28:26;100869.29;;;-3.07;44.87
73566;BME280;61846;52.970;-3.168;2022-12-16T09:30:52;100873.97;;;-3.23;45.48
73566;BME280;61846;52.970;-3.168;2022-12-16T09:33:17;100874.07;;;-2.52;43.69
73566;BME280;61846;52.970;-3.168;2022-12-16T09:35:43;100871.92;;;-1.45;41.97
73566;BME280;61846;52.970;-3.168;2022-12-16T09:38:08;100876.62;;;-2.35;43.18
73566;BME280;61846;52.970;-3.168;2022-12-16T09:40:36;100875.73;;;-3.09;44.00
73566;BME280;61846;52.970;-3.168;2022-12-16T09:43:07;100871.78;;;-2.93;43.45
73566;BME280;61846;52.970;-3.168;2022-12-16T09:45:31;100871.94;;;-2.16;43.09
73566;BME280;61846;52.970;-3.168;2022-12-16T09:47:58;100872.51;;;-1.86;42.50
73566;BME280;61846;52.970;-3.168;2022-12-16T09:50:19;100870.93;;;-1.65;41.93
73566;BME280;61846;52.970;-3.168;2022-12-16T09:52:45;100869.14;;;-0.73;41.08
73566;BME280;61846;52.970;-3.168;2022-12-16T09:55:16;100873.92;;;-1.81;42.52
73566;BME280;61846;52.970;-3.168;2022-12-16T09:57:34;100877.12;;;-1.76;42.55
73566;BME280;61846;52.970;-3.168;2022-12-16T10:00:00;100877.93;;;-1.24;41.51
73566;BME280;61846;52.970;-3.168;2022-12-16T10:02:24;100875.51;;;-0.42;40.62
73566;BME280;61846;52.970;-3.168;2022-12-16T10:04:50;100874.52;;;-0.14;40.05
73566;BME280;61846;52.970;-3.168;2022-12-16T10:07:16;100876.29;;;-0.12;39.61
73566;BME280;61846;52.970;-3.168;2022-12-16T10:09:46;100880.62;;;-0.36;40.33
73566;BME280;61846;52.970;-3.168;2022-12-16T10:12:09;100886.43;;;-0.32;40.71
73566;BME280;61846;52.970;-3.168;2022-12-16T10:14:34;100886.16;;;-0.57;41.04
73566;BME280;61846;52.970;-3.168;2022-12-16T10:17:00;100884.88;;;-0.84;41.73
73566;BME280;61846;52.970;-3.168;2022-12-16T10:19:29;100887.60;;;-1.01;42.56
73566;BME280;61846;52.970;-3.168;2022-12-16T10:21:51;100886.54;;;-0.86;42.42
73566;BME280;61846;52.970;-3.168;2022-12-16T10:24:22;100884.02;;;-0.14;41.31
73566;BME280;61846;52.970;-3.168;2022-12-16T10:26:43;100880.62;;;-0.38;41.49
73566;BME280;61846;52.970;-3.168;2022-12-16T10:29:06;100873.47;;;0.12;40.73
73566;BME280;61846;52.970;-3.168;2022-12-16T10:31:27;100874.98;;;-0.34;41.31
73566;BME280;61846;52.970;-3.168;2022-12-16T10:33:53;100871.72;;;-0.04;41.12
73566;BME280;61846;52.970;-3.168;2022-12-16T10:36:20;100876.66;;;-0.82;42.49
73566;BME280;61846;52.970;-3.168;2022-12-16T10:38:47;100875.08;;;-0.22;42.60
73566;BME280;61846;52.970;-3.168;2022-12-16T10:41:10;100872.97;;;-1.05;43.50
73566;BME280;61846;52.970;-3.168;2022-12-16T10:43:37;100872.40;;;-0.84;43.27
73566;BME280;61846;52.970;-3.168;2022-12-16T10:46:01;100873.21;;;-0.13;42.45
73566;BME280;61846;52.970;-3.168;2022-12-16T10:48:27;100866.57;;;-0.15;41.88
73566;BME280;61846;52.970;-3.168;2022-12-16T10:50:51;100864.66;;;0.01;41.97
73566;BME280;61846;52.970;-3.168;2022-12-16T10:53:19;100869.79;;;0.34;41.76
73566;BME280;61846;52.970;-3.168;2022-12-16T10:55:53;100869.00;;;-0.37;42.78
73566;BME280;61846;52.970;-3.168;2022-12-16T10:58:15;100862.94;;;-0.04;42.29
73566;BME280;61846;52.970;-3.168;2022-12-16T11:00:40;100865.71;;;-0.71;43.66
73566;BME280;61846;52.970;-3.168;2022-12-16T11:05:29;100857.98;;;-0.75;44.29
73566;BME280;61846;52.970;-3.168;2022-12-16T11:07:52;100859.42;;;-1.42;46.19
73566;BME280;61846;52.970;-3.168;2022-12-16T11:10:25;100852.80;;;-0.40;44.17
73566;BME280;61846;52.970;-3.168;2022-12-16T11:12:40;100850.86;;;-0.82;44.88
73566;BME280;61846;52.970;-3.168;2022-12-16T11:15:20;100842.18;;;0.85;42.38
73566;BME280;61846;52.970;-3.168;2022-12-16T11:17:31;100836.81;;;0.91;42.32
73566;BME280;61846;52.970;-3.168;2022-12-16T11:20:09;100834.56;;;0.69;41.72
73566;BME280;61846;52.970;-3.168;2022-12-16T11:22:23;100844.12;;;-0.71;45.00
73566;BME280;61846;52.970;-3.168;2022-12-16T11:27:15;100837.73;;;0.48;42.54
73566;BME280;61846;52.970;-3.168;2022-12-16T11:29:49;100832.24;;;0.76;42.18
73566;BME280;61846;52.970;-3.168;2022-12-16T11:32:09;100829.14;;;0.63;42.17
73566;BME280;61846;52.970;-3.168;2022-12-16T11:34:29;100826.25;;;1.36;41.27
73566;BME280;61846;52.970;-3.168;2022-12-16T11:36:55;100824.92;;;0.91;42.14
73566;BME280;61846;52.970;-3.168;2022-12-16T11:39:22;100823.73;;;0.94;42.35
73566;BME280;61846;52.970;-3.168;2022-12-16T11:41:48;100822.28;;;1.70;41.37
73566;BME280;61846;52.970;-3.168;2022-12-16T11:44:17;100823.14;;;0.31;43.00
73566;BME280;61846;52.970;-3.168;2022-12-16T11:46:37;100817.32;;;1.69;41.94
73566;BME280;61846;52.970;-3.168;2022-12-16T11:49:07;100814.83;;;1.42;42.15
73566;BME280;61846;52.970;-3.168;2022-12-16T11:51:31;100811.79;;;1.34;42.25
73566;BME280;61846;52.970;-3.168;2022-12-16T11:53:55;100809.05;;;1.85;41.54
73566;BME280;61846;52.970;-3.168;2022-12-16T11:56:22;100807.83;;;2.17;41.21
73566;BME280;61846;52.970;-3.168;2022-12-16T11:58:46;100807.87;;;2.16;40.97
73566;BME280;61846;52.970;-3.168;2022-12-16T12:01:13;100809.43;;;2.28;40.37
73566;BME280;61846;52.970;-3.168;2022-12-16T12:03:36;100801.86;;;2.73;39.81
73566;BME280;61846;52.970;-3.168;2022-12-16T12:06:04;100799.34;;;2.05;39.88
73566;BME280;61846;52.970;-3.168;2022-12-16T12:08:30;100797.51;;;2.68;40.15
73566;BME280;61846;52.970;-3.168;2022-12-16T12:11:02;100793.42;;;2.90;39.53
73566;BME280;61846;52.970;-3.168;2022-12-16T12:13:25;100790.31;;;2.63;39.76
73566;BME280;61846;52.970;-3.168;2022-12-16T12:15:45;100787.94;;;2.92;39.56
73566;BME280;61846;52.970;-3.168;2022-12-16T12:18:14;100788.60;;;2.85;39.38
73566;BME280;61846;52.970;-3.168;2022-12-16T12:20:41;100788.22;;;3.19;39.34
73566;BME280;61846;52.970;-3.168;2022-12-16T12:23:05;100788.83;;;2.79;39.29
73566;BME280;61846;52.970;-3.168;2022-12-16T12:25:28;100787.21;;;2.76;39.76
73566;BME280;61846;52.970;-3.168;2022-12-16T12:27:55;100786.12;;;3.32;39.26
73566;BME280;61846;52.970;-3.168;2022-12-16T12:30:16;100781.82;;;3.20;39.88
73566;BME280;61846;52.970;-3.168;2022-12-16T12:32:46;100776.88;;;3.51;39.24
73566;BME280;61846;52.970;-3.168;2022-12-16T12:35:16;100774.39;;;3.28;39.37
73566;BME280;61846;52.970;-3.168;2022-12-16T12:37:35;100773.18;;;3.16;39.49
73566;BME280;61846;52.970;-3.168;2022-12-16T12:39:58;100775.48;;;2.45;40.70